createdAt,value
2019-03-04T18:10:16.069Z,11.97
2019-03-04T18:10:47.543Z,13.30
2019-03-04T18:11:18.782Z,10.97
2019-03-04T18:11:49.991Z,8.30
2019-03-04T18:12:21.143Z,9.13
2019-03-04T18:12:56.447Z,10.00
2019-03-04T18:13:27.604Z,10.03
2019-03-04T18:13:58.864Z,8.73
2019-03-04T18:14:30.028Z,10.17
2019-03-04T18:15:01.258Z,10.57
2019-03-04T18:15:40.578Z,8.20
2019-03-04T18:16:11.800Z,10.57
2019-03-04T18:16:43.017Z,7.83
2019-03-04T18:17:14.268Z,10.13
2019-03-04T18:17:45.520Z,9.23
2019-03-04T18:18:16.750Z,10.60
2019-03-04T18:18:48.036Z,8.50
2019-03-04T18:19:19.300Z,9.80
2019-03-04T18:19:51.550Z,9.27
2019-03-04T18:20:22.786Z,10.87
2019-03-04T18:20:54.132Z,9.30
2019-03-04T18:21:25.353Z,10.00
2019-03-04T18:21:56.585Z,21.53
2019-03-04T18:22:29.655Z,30.73
2019-03-04T18:23:01.027Z,30.73
2019-03-04T18:23:32.171Z,26.93
2019-03-04T18:24:03.391Z,20.80
2019-03-04T18:24:34.650Z,14.70
2019-03-04T18:25:29.636Z,12.03
2019-03-04T18:26:09.264Z,12.93
2019-03-04T18:26:43.090Z,11.00
2019-03-04T18:27:14.378Z,14.00
2019-03-04T18:27:49.908Z,12.03
2019-03-04T18:28:57.205Z,13.23
2019-03-04T18:29:39.569Z,17.27
2019-03-04T18:30:28.177Z,12.97
2019-03-04T18:31:07.851Z,14.67
2019-03-04T18:31:53.836Z,11.33
2019-03-04T18:32:46.290Z,12.00
2019-03-04T18:33:35.999Z,10.63
2019-03-04T18:34:15.891Z,8.57
2019-03-04T18:35:14.523Z,9.00
2019-03-04T18:36:14.791Z,13.23
2019-03-04T18:37:01.547Z,11.63
2019-03-04T18:37:48.603Z,9.37
2019-03-04T18:38:56.979Z,10.30
2019-03-04T18:39:52.133Z,9.40
2019-03-04T18:40:46.362Z,13.63
2019-03-04T18:41:35.142Z,13.97
2019-03-04T18:42:19.923Z,14.30
2019-03-04T18:43:20.354Z,16.40
2019-03-04T18:44:03.113Z,10.97
2019-03-04T18:44:43.235Z,15.53
2019-03-04T18:45:42.937Z,9.30
2019-03-04T18:46:37.232Z,8.70
2019-03-04T18:47:37.834Z,12.53
2019-03-04T18:48:14.752Z,9.97
2019-03-04T18:48:53.140Z,9.47
2019-03-04T18:49:24.357Z,11.97
2019-03-04T18:49:57.423Z,10.53
2019-03-04T18:50:28.905Z,12.77
2019-03-04T18:51:00.077Z,11.00
2019-03-04T18:51:31.746Z,12.80
2019-03-04T18:52:02.919Z,11.97
2019-03-04T18:52:34.157Z,10.73
2019-03-04T18:53:05.336Z,17.70
2019-03-04T18:53:36.574Z,8.93
2019-03-04T18:54:08.529Z,8.40
2019-03-04T18:54:39.762Z,8.43
2019-03-04T18:55:10.938Z,11.83
2019-03-04T18:55:42.171Z,6.93
2019-03-04T18:56:21.756Z,10.70
2019-03-04T18:56:46.456Z,9.37
2019-03-04T18:57:17.607Z,9.63
2019-03-04T18:57:48.808Z,8.50
2019-03-04T18:58:19.959Z,10.53
2019-03-04T18:58:51.287Z,11.90
2019-03-04T18:59:22.457Z,8.67
2019-03-04T18:59:53.657Z,8.17
2019-03-04T19:00:25.390Z,9.77
2019-03-04T19:00:56.705Z,6.97
2019-03-04T19:01:27.864Z,12.77
2019-03-04T19:01:59.409Z,11.87
2019-03-04T19:02:30.576Z,10.20
2019-03-04T19:03:02.788Z,12.83
2019-03-04T19:03:33.977Z,10.47
2019-03-04T19:04:05.220Z,17.03
2019-03-04T19:04:37.504Z,9.40
2019-03-04T19:05:10.022Z,9.40
2019-03-04T19:05:41.260Z,10.57
2019-03-04T19:06:13.887Z,12.33
2019-03-04T19:06:45.142Z,17.73
2019-03-04T19:07:16.324Z,13.17
2019-03-04T19:07:48.517Z,8.73
2019-03-04T19:08:19.719Z,12.40
2019-03-04T19:08:50.900Z,9.23
2019-03-04T19:09:22.203Z,7.73
2019-03-04T19:09:53.359Z,8.47
2019-03-04T19:10:24.598Z,7.57
2019-03-04T19:10:55.872Z,9.30
2019-03-04T19:11:27.446Z,8.20
2019-03-04T19:11:58.841Z,7.17
2019-03-04T19:12:30.387Z,9.93
2019-03-04T19:13:01.915Z,11.60
2019-03-04T19:13:33.128Z,11.27
2019-03-04T19:14:04.427Z,13.47
2019-03-04T19:14:36.086Z,7.33
2019-03-04T19:15:09.952Z,8.87
2019-03-04T19:15:42.199Z,12.63
2019-03-04T19:16:13.773Z,10.70
2019-03-04T19:16:45.222Z,10.57
2019-03-04T19:17:16.359Z,12.23
2019-03-04T19:17:48.246Z,7.17
2019-03-04T19:18:20.324Z,8.77
2019-03-04T19:18:51.907Z,10.00
2019-03-04T19:19:23.601Z,8.83
2019-03-04T19:19:54.920Z,11.27
2019-03-04T19:20:26.775Z,13.27
2019-03-04T19:20:59.129Z,8.07
2019-03-04T19:21:30.643Z,15.77
2019-03-04T19:22:02.124Z,10.33
2019-03-04T19:22:33.473Z,10.67
2019-03-04T19:23:04.945Z,8.30
2019-03-04T19:23:36.398Z,10.43
2019-03-04T19:24:07.745Z,11.50
2019-03-04T19:24:39.057Z,12.83
2019-03-04T19:25:10.500Z,15.70
2019-03-04T19:25:41.958Z,10.83
2019-03-04T19:26:13.103Z,10.63
2019-03-04T19:26:44.321Z,9.50
2019-03-04T19:27:15.470Z,12.50
2019-03-04T19:27:46.786Z,11.60
2019-03-04T19:28:17.951Z,9.50
2019-03-04T19:28:49.182Z,12.53
2019-03-04T19:29:20.341Z,17.63
2019-03-04T19:29:53.421Z,10.90
2019-03-04T19:30:24.606Z,13.80
2019-03-04T19:30:55.814Z,14.77
2019-03-04T19:31:27.100Z,17.10
2019-03-04T19:31:58.292Z,10.13
2019-03-04T19:32:29.584Z,15.13
2019-03-04T19:33:00.754Z,16.33
2019-03-04T19:33:32.096Z,12.67
2019-03-04T19:34:03.285Z,9.40
2019-03-04T19:34:34.470Z,9.20
2019-03-04T19:35:08.922Z,5.23
2019-03-04T19:35:40.171Z,5.57
2019-03-04T19:36:11.424Z,4.77
2019-03-04T19:36:42.640Z,6.27
2019-03-04T19:37:13.774Z,4.37
2019-03-04T19:37:45.078Z,2.83
2019-03-04T19:38:16.467Z,3.90
2019-03-04T19:38:47.646Z,5.37
2019-03-04T19:39:18.786Z,4.23
2019-03-04T19:39:49.967Z,5.40
2019-03-04T19:40:21.136Z,4.20
2019-03-04T19:40:52.296Z,3.50
2019-03-04T19:41:23.490Z,4.20
2019-03-04T19:41:54.656Z,5.40
2019-03-04T19:42:25.805Z,5.37
2019-03-04T19:42:56.980Z,5.27
2019-03-04T19:43:32.812Z,4.13
2019-03-04T19:44:01.179Z,5.47
2019-03-04T19:44:32.479Z,5.13
2019-03-04T19:45:17.056Z,3.20
2019-03-04T19:45:49.221Z,4.60
2019-03-04T19:46:20.441Z,6.57
2019-03-04T19:46:51.600Z,4.43
2019-03-04T19:47:22.817Z,5.47
2019-03-04T19:47:53.964Z,5.20
2019-03-04T19:48:26.501Z,3.43
2019-03-04T19:48:57.685Z,6.53
2019-03-04T19:49:29.039Z,3.77
2019-03-04T19:50:00.389Z,3.03
2019-03-04T19:50:31.664Z,3.17
2019-03-04T19:51:02.839Z,3.53
2019-03-04T19:51:34.124Z,2.50
2019-03-04T19:52:05.331Z,3.50
2019-03-04T19:52:36.527Z,3.60
2019-03-04T19:53:08.694Z,3.00
2019-03-04T19:53:39.873Z,3.57
2019-03-04T19:54:11.044Z,3.53
2019-03-04T19:54:42.207Z,3.00
2019-03-04T19:55:16.396Z,2.50
2019-03-04T19:55:47.620Z,2.90
2019-03-04T19:56:18.836Z,2.23
2019-03-04T19:56:50.046Z,3.17
2019-03-04T19:57:21.262Z,2.83
2019-03-04T19:57:52.552Z,2.60
2019-03-04T19:58:23.737Z,3.83
2019-03-04T19:58:54.919Z,4.77
2019-03-04T19:59:26.113Z,5.53
2019-03-04T19:59:57.323Z,3.30
2019-03-04T20:00:29.570Z,3.13
2019-03-04T20:01:00.866Z,2.93
2019-03-04T20:01:32.102Z,4.30
2019-03-04T20:02:03.405Z,7.27
2019-03-04T20:02:34.582Z,4.30
2019-03-04T20:03:05.841Z,7.20
2019-03-04T20:03:37.002Z,5.10
2019-03-04T20:04:08.227Z,5.00
2019-03-04T20:04:39.393Z,3.87
2019-03-04T20:05:13.148Z,4.70
2019-03-04T20:05:45.412Z,4.37
2019-03-04T20:06:16.640Z,3.03
2019-03-04T20:06:47.808Z,4.10
2019-03-04T20:07:19.127Z,4.07
2019-03-04T20:07:50.301Z,3.47
2019-03-04T20:08:21.534Z,4.33
2019-03-04T20:08:52.698Z,6.30
2019-03-04T20:09:23.934Z,9.67
2019-03-04T20:09:55.102Z,5.77
2019-03-04T20:10:26.690Z,6.40
2019-03-04T20:10:57.850Z,5.00
2019-03-04T20:11:29.053Z,7.23
2019-03-04T20:12:00.226Z,5.03
2019-03-04T20:12:31.527Z,5.53
2019-03-04T20:13:02.704Z,5.30
2019-03-04T20:13:33.913Z,3.73
2019-03-04T20:14:05.183Z,4.50
2019-03-04T20:14:36.491Z,6.60
2019-03-04T20:15:27.055Z,5.43
2019-03-04T20:15:58.234Z,8.07
2019-03-04T20:16:29.483Z,6.53
2019-03-04T20:17:01.810Z,6.23
2019-03-04T20:17:33.006Z,6.43
2019-03-04T20:18:04.179Z,6.57
2019-03-04T20:18:36.463Z,5.57
2019-03-04T20:19:07.654Z,7.77
2019-03-04T20:19:38.841Z,4.63
2019-03-04T20:20:10.035Z,2.73
2019-03-04T20:20:41.231Z,4.10
2019-03-04T20:21:12.423Z,5.73
2019-03-04T20:21:43.698Z,6.30
2019-03-04T20:22:14.881Z,6.13
2019-03-04T20:22:47.066Z,7.80
2019-03-04T20:23:18.255Z,5.87
2019-03-04T20:23:49.448Z,4.87
2019-03-04T20:24:20.656Z,6.70
2019-03-04T20:24:51.858Z,6.17
2019-03-04T20:25:24.483Z,5.37
2019-03-04T20:25:55.841Z,5.53
2019-03-04T20:26:27.145Z,5.13
2019-03-04T20:26:58.305Z,5.13
2019-03-04T20:27:29.586Z,4.83
2019-03-04T20:28:00.744Z,7.87
2019-03-04T20:28:33.176Z,6.73
2019-03-04T20:29:04.348Z,6.13
2019-03-04T20:29:35.549Z,5.47
2019-03-04T20:30:22.858Z,5.97
2019-03-04T20:30:54.182Z,6.50
2019-03-04T20:31:25.366Z,7.90
2019-03-04T20:31:56.582Z,5.87
2019-03-04T20:32:27.835Z,4.63
2019-03-04T20:32:59.101Z,4.83
2019-03-04T20:33:30.277Z,4.27
2019-03-04T20:34:01.617Z,6.27
2019-03-04T20:34:32.880Z,6.30
2019-03-04T20:35:08.165Z,4.93
2019-03-04T20:35:39.780Z,4.87
2019-03-04T20:36:11.049Z,4.97
2019-03-04T20:36:42.373Z,4.87
2019-03-04T20:37:13.755Z,6.23
2019-03-04T20:38:07.135Z,4.60
2019-03-04T20:38:42.945Z,4.93
2019-03-04T20:39:14.244Z,5.77
2019-03-04T20:39:45.427Z,6.90
2019-03-04T20:40:18.598Z,6.70
2019-03-04T20:40:49.780Z,6.80
2019-03-04T20:41:20.955Z,7.07
2019-03-04T20:41:52.149Z,8.40
2019-03-04T20:42:23.361Z,5.53
2019-03-04T20:42:54.556Z,7.37
2019-03-04T20:43:25.759Z,8.67
2019-03-04T20:43:56.952Z,7.83
2019-03-04T20:44:28.125Z,5.97
2019-03-04T20:44:59.518Z,7.63
2019-03-04T20:45:31.717Z,5.57
2019-03-04T20:46:02.999Z,7.63
2019-03-04T20:46:34.211Z,7.10
2019-03-04T20:47:05.395Z,6.37
2019-03-04T20:47:36.593Z,5.13
2019-03-04T20:48:07.796Z,6.87
2019-03-04T20:48:39.029Z,8.30
2019-03-04T20:49:10.212Z,5.90
2019-03-04T20:49:41.600Z,8.13
2019-03-04T20:50:21.160Z,5.73
2019-03-04T20:50:52.367Z,6.47
2019-03-04T20:51:23.548Z,7.03
2019-03-04T20:51:54.766Z,5.90
2019-03-04T20:52:25.932Z,7.40
2019-03-04T20:52:57.146Z,9.00
2019-03-04T20:53:28.298Z,8.07
2019-03-04T20:53:59.542Z,6.10
2019-03-04T20:54:30.702Z,8.47
2019-03-04T20:55:04.567Z,6.10
2019-03-04T20:55:36.082Z,6.93
2019-03-04T20:56:07.716Z,8.27
2019-03-04T20:56:39.213Z,8.60
2019-03-04T20:57:10.459Z,9.03
2019-03-04T20:57:41.779Z,8.37
2019-03-04T20:58:13.023Z,8.57
2019-03-04T20:58:44.271Z,5.47
2019-03-04T20:59:15.532Z,6.10
2019-03-04T20:59:46.764Z,7.00
2019-03-04T21:00:37.463Z,8.80
2019-03-04T21:01:08.790Z,7.37
2019-03-04T21:01:40.039Z,6.73
2019-03-04T21:02:11.266Z,8.90
2019-03-04T21:02:42.506Z,6.90
2019-03-04T21:03:13.731Z,5.80
2019-03-04T21:03:45.080Z,5.07
2019-03-04T21:04:16.436Z,5.97
2019-03-04T21:04:47.663Z,5.37
2019-03-04T21:05:19.005Z,4.17
2019-03-04T21:05:50.310Z,5.47
2019-03-04T21:06:21.601Z,7.07
2019-03-04T21:06:55.724Z,6.40
2019-03-04T21:07:27.000Z,5.00
2019-03-04T21:07:58.341Z,4.87
2019-03-04T21:08:29.568Z,5.93
2019-03-04T21:09:00.768Z,5.50
2019-03-04T21:09:32.019Z,4.93
2019-03-04T21:10:08.331Z,6.90
2019-03-04T21:10:39.858Z,9.97
2019-03-04T21:11:11.338Z,7.80
2019-03-04T21:11:42.634Z,7.33
2019-03-04T21:12:50.223Z,7.83
2019-03-04T21:13:34.898Z,11.50
2019-03-04T21:13:57.526Z,9.70
2019-03-04T21:14:28.940Z,9.13
2019-03-04T21:15:00.251Z,7.40
2019-03-04T21:15:31.934Z,5.00
2019-03-04T21:16:03.206Z,6.93
2019-03-04T21:16:34.378Z,5.83
2019-03-04T21:17:05.624Z,3.83
2019-03-04T21:17:36.790Z,4.47
2019-03-04T21:18:08.030Z,4.63
2019-03-04T21:18:39.183Z,6.40
2019-03-04T21:19:10.404Z,8.20
2019-03-04T21:19:41.560Z,5.60
2019-03-04T21:20:17.352Z,4.33
2019-03-04T21:20:48.738Z,5.00
2019-03-04T21:21:19.950Z,4.43
2019-03-04T21:21:53.008Z,8.27
2019-03-04T21:22:24.229Z,4.83
2019-03-04T21:22:55.416Z,6.77
2019-03-04T21:23:26.740Z,5.97
2019-03-04T21:23:57.894Z,4.97
2019-03-04T21:24:29.626Z,6.10
2019-03-04T21:25:00.786Z,5.63
2019-03-04T21:25:49.363Z,5.30
2019-03-04T21:26:22.255Z,4.23
2019-03-04T21:26:53.479Z,6.27
2019-03-04T21:27:24.831Z,4.87
2019-03-04T21:27:56.077Z,6.83
2019-03-04T21:29:03.234Z,5.87
2019-03-04T21:29:46.090Z,6.23
2019-03-04T21:30:23.029Z,5.67
2019-03-04T21:31:16.378Z,7.37
2019-03-04T21:31:59.093Z,7.83
2019-03-04T21:32:36.029Z,6.57
2019-03-04T21:33:07.770Z,6.27
2019-03-04T21:34:07.297Z,4.90
2019-03-04T21:35:20.438Z,7.10
2019-03-04T21:36:03.420Z,5.23
2019-03-04T21:37:04.044Z,5.93
2019-03-04T21:37:38.558Z,4.53
2019-03-04T21:38:09.817Z,5.33
2019-03-04T21:38:40.966Z,5.23
2019-03-04T21:39:16.894Z,5.40
2019-03-04T21:39:59.129Z,7.93
2019-03-04T21:40:41.400Z,5.23
2019-03-04T21:41:24.168Z,4.03
2019-03-04T21:42:16.288Z,3.90
2019-03-04T21:42:58.242Z,6.77
2019-03-04T21:43:37.929Z,6.53
2019-03-04T21:44:32.776Z,4.50
2019-03-04T21:45:44.670Z,5.70
2019-03-04T21:46:57.604Z,4.03
2019-03-04T21:47:37.226Z,7.43
2019-03-04T21:48:26.006Z,3.70
2019-03-04T21:49:01.628Z,4.60
2019-03-04T21:49:37.796Z,6.87
2019-03-04T21:50:26.623Z,4.43
2019-03-04T21:51:12.640Z,5.13
2019-03-04T21:51:52.286Z,4.73
2019-03-04T21:52:32.156Z,4.20
2019-03-04T21:53:20.511Z,4.47
2019-03-04T21:53:51.855Z,5.43
2019-03-04T21:54:23.067Z,5.13
2019-03-04T21:54:54.213Z,4.37
2019-03-04T21:55:43.110Z,6.37
2019-03-04T21:56:34.507Z,4.60
2019-03-04T21:57:28.902Z,4.80
2019-03-04T21:58:00.219Z,5.90
2019-03-04T21:58:31.638Z,4.43
2019-03-04T21:59:05.887Z,7.40
2019-03-04T21:59:37.223Z,7.30
2019-03-04T22:00:15.875Z,6.47
2019-03-04T22:00:54.821Z,7.30
2019-03-04T22:01:34.809Z,8.13
2019-03-04T22:02:29.771Z,6.93
2019-03-04T22:03:09.046Z,7.30
2019-03-04T22:03:40.373Z,8.07
2019-03-04T22:04:11.709Z,6.10
2019-03-04T22:04:43.358Z,7.10
2019-03-04T22:05:16.896Z,6.13
2019-03-04T22:05:50.525Z,6.57
2019-03-04T22:06:22.514Z,6.60
2019-03-04T22:06:53.762Z,7.53
2019-03-04T22:07:25.013Z,7.03
2019-03-04T22:07:56.242Z,5.80
2019-03-04T22:08:27.451Z,6.60
2019-03-04T22:08:58.818Z,7.30
2019-03-04T22:09:30.328Z,6.97
2019-03-04T22:10:01.766Z,6.77
2019-03-04T22:10:33.097Z,7.40
2019-03-04T22:11:04.270Z,5.30
2019-03-04T22:11:37.004Z,6.63
2019-03-04T22:12:13.086Z,7.13
2019-03-04T22:12:44.488Z,8.10
2019-03-04T22:13:15.768Z,6.07
2019-03-04T22:13:47.052Z,5.93
2019-03-04T22:14:18.424Z,7.60
2019-03-04T22:14:49.629Z,7.53
2019-03-04T22:15:21.871Z,6.37
2019-03-04T22:15:53.084Z,8.30
2019-03-04T22:16:24.247Z,6.80
2019-03-04T22:16:55.481Z,6.53
2019-03-04T22:17:26.717Z,7.60
2019-03-04T22:17:59.936Z,7.37
2019-03-04T22:18:31.219Z,7.70
2019-03-04T22:19:02.476Z,11.77
2019-03-04T22:19:34.709Z,6.77
2019-03-04T22:20:11.627Z,6.93
2019-03-04T22:20:43.063Z,8.40
2019-03-04T22:21:16.662Z,7.80
2019-03-04T22:21:47.451Z,6.70
2019-03-04T22:22:18.697Z,7.53
2019-03-04T22:22:50.063Z,7.60
2019-03-04T22:23:22.334Z,7.20
2019-03-04T22:23:53.546Z,6.70
2019-03-04T22:24:24.712Z,6.60
2019-03-04T22:24:55.923Z,6.73
2019-03-04T22:25:27.075Z,6.50
2019-03-04T22:26:01.976Z,5.67
2019-03-04T22:26:31.345Z,7.53
2019-03-04T22:27:02.588Z,7.40
2019-03-04T22:27:33.829Z,7.87
2019-03-04T22:28:05.043Z,7.10
2019-03-04T22:28:36.230Z,6.67
2019-03-04T22:29:07.576Z,8.10
2019-03-04T22:29:38.799Z,8.07
2019-03-04T22:30:17.199Z,8.43
2019-03-04T22:30:48.548Z,7.07
2019-03-04T22:31:19.827Z,7.50
2019-03-04T22:31:51.039Z,9.80
2019-03-04T22:32:22.254Z,7.27
2019-03-04T22:32:54.488Z,7.50
2019-03-04T22:33:25.736Z,7.33
2019-03-04T22:33:56.987Z,6.03
2019-03-04T22:34:28.174Z,9.77
2019-03-04T22:34:59.481Z,6.63
2019-03-04T22:35:30.647Z,8.77
2019-03-04T22:36:02.146Z,7.93
2019-03-04T22:36:33.334Z,7.10
2019-03-04T22:37:04.558Z,8.13
2019-03-04T22:37:35.752Z,6.97
2019-03-04T22:38:06.980Z,7.03
2019-03-04T22:38:38.145Z,7.50
2019-03-04T22:39:09.392Z,6.03
2019-03-04T22:39:40.871Z,7.77
2019-03-04T22:40:21.716Z,6.33
2019-03-04T22:40:52.880Z,6.53
2019-03-04T22:41:24.075Z,7.97
2019-03-04T22:41:55.256Z,7.00
2019-03-04T22:42:26.457Z,7.13
2019-03-04T22:42:57.632Z,7.70
2019-03-04T22:43:29.192Z,7.10
2019-03-04T22:44:00.517Z,9.57
2019-03-04T22:44:31.655Z,8.20
2019-03-04T22:45:10.681Z,8.17
2019-03-04T22:45:41.851Z,8.60
2019-03-04T22:46:13.047Z,8.93
2019-03-04T22:46:44.235Z,7.63
2019-03-04T22:47:15.437Z,7.23
2019-03-04T22:47:48.905Z,7.90
2019-03-04T22:48:20.125Z,7.63
2019-03-04T22:48:51.322Z,7.07
2019-03-04T22:49:22.499Z,10.20
2019-03-04T22:49:53.680Z,9.60
2019-03-04T22:50:24.864Z,7.23
2019-03-04T22:50:56.035Z,7.67
2019-03-04T22:51:27.238Z,6.40
2019-03-04T22:51:58.668Z,6.23
2019-03-04T22:52:29.844Z,6.77
2019-03-04T22:53:01.040Z,6.47
2019-03-04T22:53:32.354Z,6.53
2019-03-04T22:54:03.635Z,7.33
2019-03-04T22:54:34.844Z,8.10
2019-03-04T22:55:17.040Z,6.47
2019-03-04T22:55:48.219Z,8.73
2019-03-04T22:56:19.394Z,7.30
2019-03-04T22:56:50.577Z,10.73
2019-03-04T22:57:21.766Z,9.47
2019-03-04T22:57:52.950Z,9.13
2019-03-04T22:58:28.609Z,7.43
2019-03-04T22:58:57.264Z,7.07
2019-03-04T22:59:28.410Z,6.87
2019-03-04T22:59:59.616Z,7.83
2019-03-04T23:00:51.610Z,8.80
2019-03-04T23:01:30.878Z,7.60
2019-03-04T23:02:02.216Z,8.23
2019-03-04T23:02:33.513Z,9.63
2019-03-04T23:03:04.693Z,7.83
2019-03-04T23:03:36.914Z,6.43
2019-03-04T23:04:14.482Z,8.97
2019-03-04T23:04:45.668Z,8.30
2019-03-04T23:05:17.340Z,6.93
2019-03-04T23:06:06.007Z,9.60
2019-03-04T23:06:42.890Z,6.00
2019-03-04T23:07:14.078Z,10.33
2019-03-04T23:07:46.445Z,6.37
2019-03-04T23:08:17.622Z,8.50
2019-03-04T23:08:48.803Z,8.27
2019-03-04T23:09:23.821Z,8.17
2019-03-04T23:09:57.815Z,7.67
2019-03-04T23:10:30.699Z,8.33
2019-03-04T23:11:02.193Z,6.43
2019-03-04T23:11:33.425Z,6.50
2019-03-04T23:12:25.427Z,5.63
2019-03-04T23:12:57.858Z,9.47
2019-03-04T23:13:58.815Z,7.20
2019-03-04T23:14:30.021Z,6.10
2019-03-04T23:15:01.185Z,8.27
2019-03-04T23:15:32.406Z,7.60
2019-03-04T23:16:04.664Z,11.07
2019-03-04T23:16:35.880Z,7.63
2019-03-04T23:17:07.027Z,8.67
2019-03-04T23:17:38.233Z,8.47
2019-03-04T23:18:09.398Z,7.50
2019-03-04T23:18:40.620Z,7.73
2019-03-04T23:19:11.773Z,9.60
2019-03-04T23:19:42.999Z,8.80
2019-03-04T23:20:14.171Z,8.03
2019-03-04T23:20:45.390Z,7.23
2019-03-04T23:21:17.560Z,6.73
2019-03-04T23:21:48.783Z,8.13
2019-03-04T23:22:19.941Z,7.07
2019-03-04T23:22:51.136Z,9.23
2019-03-04T23:23:22.286Z,6.90
2019-03-04T23:23:53.479Z,8.03
2019-03-04T23:24:24.644Z,7.83
2019-03-04T23:24:55.892Z,7.50
2019-03-04T23:25:27.049Z,7.10
2019-03-04T23:25:58.255Z,9.13
2019-03-04T23:26:29.398Z,8.93
2019-03-04T23:27:00.602Z,8.63
2019-03-04T23:27:31.762Z,11.03
2019-03-04T23:28:02.976Z,11.37
2019-03-04T23:28:34.140Z,10.17
2019-03-04T23:29:05.372Z,10.10
2019-03-04T23:29:36.542Z,9.23
2019-03-04T23:30:13.972Z,8.43
2019-03-04T23:30:45.134Z,7.17
2019-03-04T23:31:16.356Z,9.47
2019-03-04T23:31:47.599Z,10.07
2019-03-04T23:32:18.812Z,9.33
2019-03-04T23:32:49.989Z,7.57
2019-03-04T23:33:23.092Z,8.67
2019-03-04T23:33:54.240Z,7.03
2019-03-04T23:34:25.643Z,7.83
2019-03-04T23:34:56.784Z,7.70
2019-03-04T23:35:27.998Z,8.47
2019-03-04T23:35:59.162Z,9.80
2019-03-04T23:36:30.379Z,7.00
2019-03-04T23:37:01.760Z,7.57
2019-03-04T23:37:33.018Z,8.97
2019-03-04T23:38:04.224Z,7.30
2019-03-04T23:38:35.435Z,7.40
2019-03-04T23:39:06.994Z,7.10
2019-03-04T23:39:38.879Z,9.20
2019-03-04T23:40:10.188Z,9.17
2019-03-04T23:40:41.347Z,9.83
2019-03-04T23:41:14.236Z,8.80
2019-03-04T23:41:45.487Z,7.87
2019-03-04T23:42:16.657Z,10.43
2019-03-04T23:42:47.829Z,7.27
2019-03-04T23:43:19.031Z,8.33
2019-03-04T23:43:50.191Z,7.87
2019-03-04T23:44:21.355Z,8.83
2019-03-04T23:44:52.535Z,8.77
2019-03-04T23:45:23.735Z,9.00
2019-03-04T23:45:54.901Z,7.40
2019-03-04T23:46:26.112Z,7.50
2019-03-04T23:46:57.279Z,8.40
2019-03-04T23:47:28.859Z,9.83
2019-03-04T23:48:00.123Z,6.90
2019-03-04T23:48:31.629Z,6.80
2019-03-04T23:49:02.782Z,9.77
2019-03-04T23:49:33.991Z,7.13
2019-03-04T23:50:22.971Z,7.10
2019-03-04T23:50:54.314Z,8.20
2019-03-04T23:51:25.482Z,7.47
2019-03-04T23:51:58.816Z,8.00
2019-03-04T23:52:29.980Z,7.87
2019-03-04T23:53:01.194Z,6.80
2019-03-04T23:53:32.408Z,7.77
2019-03-04T23:54:03.672Z,7.87
2019-03-04T23:54:34.836Z,7.50
2019-03-04T23:55:07.142Z,9.87
2019-03-04T23:55:38.302Z,9.47
2019-03-04T23:56:09.546Z,8.57
2019-03-04T23:56:40.692Z,8.73
2019-03-04T23:57:11.903Z,7.00
2019-03-04T23:57:43.066Z,10.03
2019-03-04T23:58:14.272Z,7.07
2019-03-04T23:58:45.434Z,7.10
2019-03-04T23:59:16.648Z,7.30
2019-03-04T23:59:47.807Z,8.47
